Time;durP1;ratioP1;P1;durP2;ratioP2;P2;SDS_P1;SDS_P2;PMS_P1;PMS_P2;Temp;Humidity;BMP_temperature;BMP_pressure;BME280_temperature;BME280_humidity;BME280_pressure;Samples;Min_cycle;Max_cycle;Signal;HPM_P1;HPM_P2
2022/03/01 00:01:52;;;;;;;15.30;7.50;;;;;;;;;;4953318;28;20111;-74
2022/03/01 00:04:19;;;;;;;12.82;8.55;;;;;;;;;;4955888;28;20034;-73
2022/03/01 00:06:45;;;;;;;14.07;7.88;;;;;;;;;;4962249;28;20134;-74
2022/03/01 00:09:11;;;;;;;18.73;8.98;;;;;;;;;;4961563;28;20090;-74
2022/03/01 00:11:38;;;;;;;20.02;9.90;;;;;;;;;;4970991;28;20026;-73
2022/03/01 00:14:04;;;;;;;19.90;9.25;;;;;;;;;;4948328;29;20039;-74
2022/03/01 00:16:30;;;;;;;13.68;7.78;;;;;;;;;;4969635;28;20031;-74
2022/03/01 00:18:57;;;;;;;14.38;7.43;;;;;;;;;;4968249;28;20079;-74
2022/03/01 00:21:24;;;;;;;16.52;7.82;;;;;;;;;;4958522;28;20190;-74
2022/03/01 00:23:50;;;;;;;13.35;7.75;;;;;;;;;;4962420;28;20031;-74
2022/03/01 00:26:16;;;;;;;20.45;10.13;;;;;;;;;;4964859;28;20110;-74
2022/03/01 00:28:42;;;;;;;18.35;8.85;;;;;;;;;;4959214;28;20056;-74
2022/03/01 00:31:09;;;;;;;19.70;9.55;;;;;;;;;;4973245;28;20043;-74
2022/03/01 00:33:35;;;;;;;22.35;9.45;;;;;;;;;;4964626;28;20154;-74
2022/03/01 00:36:01;;;;;;;17.05;9.70;;;;;;;;;;4958211;28;20114;-74
2022/03/01 00:38:28;;;;;;;18.60;9.68;;;;;;;;;;4961788;28;20029;-74
2022/03/01 00:40:54;;;;;;;16.17;7.80;;;;;;;;;;4959120;28;20051;-74
2022/03/01 00:43:21;;;;;;;15.35;7.82;;;;;;;;;;4958388;28;20589;-74
2022/03/01 00:45:47;;;;;;;18.10;8.45;;;;;;;;;;4970400;28;20109;-74
2022/03/01 00:48:13;;;;;;;16.45;7.88;;;;;;;;;;4961303;28;20135;-74
2022/03/01 00:50:39;;;;;;;13.25;8.55;;;;;;;;;;4962925;28;20033;-74
2022/03/01 00:53:06;;;;;;;17.70;8.60;;;;;;;;;;4961270;28;20563;-74
2022/03/01 00:55:33;;;;;;;17.90;8.50;;;;;;;;;;4978816;28;20424;-74
2022/03/01 00:57:59;;;;;;;12.25;7.07;;;;;;;;;;4968550;28;20691;-74
2022/03/01 01:00:25;;;;;;;14.32;7.40;;;;;;;;;;4975623;28;20106;-75
2022/03/01 01:02:51;;;;;;;13.50;7.63;;;;;;;;;;4954691;28;20065;-75
2022/03/01 01:05:18;;;;;;;11.65;7.50;;;;;;;;;;4973358;28;20568;-74
2022/03/01 01:07:44;;;;;;;16.55;8.45;;;;;;;;;;4960734;28;20102;-74
2022/03/01 01:10:10;;;;;;;13.73;6.82;;;;;;;;;;4963318;28;20067;-75
2022/03/01 01:12:36;;;;;;;15.32;7.15;;;;;;;;;;4959947;28;20031;-74
2022/03/01 01:15:03;;;;;;;16.33;6.88;;;;;;;;;;4968026;28;20031;-74
2022/03/01 01:17:29;;;;;;;18.40;7.40;;;;;;;;;;4968907;28;20114;-74
2022/03/01 01:19:56;;;;;;;15.20;8.38;;;;;;;;;;4956242;28;20027;-75
2022/03/01 01:22:40;;;;;;;18.42;8.73;;;;;;;;;;4966617;28;20401;-73
2022/03/01 01:25:14;;;;;;;17.58;8.68;;;;;;;;;;4969596;28;20074;-74
2022/03/01 01:27:40;;;;;;;15.63;7.35;;;;;;;;;;4970679;28;20385;-74
2022/03/01 01:30:07;;;;;;;13.75;7.55;;;;;;;;;;4958615;28;20041;-74
2022/03/01 01:32:34;;;;;;;11.73;7.88;;;;;;;;;;4969292;28;20033;-74
2022/03/01 01:35:00;;;;;;;14.25;7.78;;;;;;;;;;4964931;28;20032;-74
2022/03/01 01:37:26;;;;;;;14.93;7.55;;;;;;;;;;4962735;28;20065;-73
2022/03/01 01:39:52;;;;;;;12.80;6.88;;;;;;;;;;4964877;28;20070;-74
2022/03/01 01:42:18;;;;;;;9.82;7.05;;;;;;;;;;4969660;28;20232;-74
2022/03/01 01:44:44;;;;;;;18.20;8.25;;;;;;;;;;4967498;28;20123;-74
2022/03/01 01:47:10;;;;;;;14.98;7.43;;;;;;;;;;4959345;28;20731;-74
2022/03/01 01:49:37;;;;;;;15.35;7.85;;;;;;;;;;4964384;28;20380;-74
2022/03/01 01:52:03;;;;;;;16.30;6.95;;;;;;;;;;4956309;28;20097;-75
2022/03/01 01:54:29;;;;;;;16.48;7.32;;;;;;;;;;4949740;28;20108;-74
2022/03/01 01:56:55;;;;;;;16.38;7.53;;;;;;;;;;4966709;28;20035;-75
2022/03/01 01:59:21;;;;;;;13.65;7.18;;;;;;;;;;4967502;28;20073;-73
2022/03/01 02:01:47;;;;;;;16.38;7.43;;;;;;;;;;4972827;28;20052;-74
2022/03/01 02:04:13;;;;;;;11.98;6.10;;;;;;;;;;4964640;28;20027;-74
2022/03/01 02:06:52;;;;;;;17.75;7.28;;;;;;;;;;4955216;28;20059;-74
2022/03/01 02:09:18;;;;;;;10.73;5.70;;;;;;;;;;4982092;28;20022;-74
2022/03/01 02:11:45;;;;;;;11.73;5.45;;;;;;;;;;4964098;28;20035;-74
2022/03/01 02:14:11;;;;;;;14.63;6.93;;;;;;;;;;4959191;28;20146;-73
2022/03/01 02:16:37;;;;;;;8.38;4.93;;;;;;;;;;4966605;28;20031;-73
2022/03/01 02:19:10;;;;;;;12.82;5.80;;;;;;;;;;4967454;28;20106;-73
2022/03/01 02:21:36;;;;;;;7.60;5.18;;;;;;;;;;4966345;28;20045;-74
2022/03/01 02:24:02;;;;;;;9.90;5.65;;;;;;;;;;4969017;28;20034;-75
2022/03/01 02:26:28;;;;;;;9.13;5.25;;;;;;;;;;4954405;28;20027;-73
2022/03/01 02:28:54;;;;;;;7.65;5.03;;;;;;;;;;4967082;28;20460;-74
2022/03/01 02:31:20;;;;;;;8.45;5.18;;;;;;;;;;4963521;28;20031;-73
2022/03/01 02:33:46;;;;;;;13.73;6.38;;;;;;;;;;4954337;28;20034;-74
2022/03/01 02:36:12;;;;;;;9.43;5.45;;;;;;;;;;4964571;28;20069;-74
2022/03/01 02:38:38;;;;;;;12.15;6.50;;;;;;;;;;4970174;28;20035;-74
2022/03/01 02:41:04;;;;;;;10.15;5.57;;;;;;;;;;4955628;28;20065;-74
2022/03/01 02:43:31;;;;;;;9.77;5.63;;;;;;;;;;4968468;28;20105;-74
2022/03/01 02:45:57;;;;;;;12.18;7.20;;;;;;;;;;4956857;28;21284;-74
2022/03/01 02:48:23;;;;;;;12.45;5.70;;;;;;;;;;4972037;28;20023;-74
2022/03/01 02:50:49;;;;;;;10.93;6.07;;;;;;;;;;4983487;28;20030;-74
2022/03/01 02:53:16;;;;;;;8.63;5.93;;;;;;;;;;4972994;28;20027;-74
2022/03/01 02:55:42;;;;;;;8.98;5.57;;;;;;;;;;4969413;28;20035;-74
2022/03/01 02:58:08;;;;;;;11.07;5.93;;;;;;;;;;4955479;28;20030;-74
2022/03/01 03:00:34;;;;;;;15.27;6.40;;;;;;;;;;4969600;28;20070;-74
2022/03/01 03:03:00;;;;;;;12.00;5.35;;;;;;;;;;4965097;28;20043;-74
2022/03/01 03:05:26;;;;;;;15.48;6.13;;;;;;;;;;4969576;28;20027;-74
2022/03/01 03:07:52;;;;;;;13.15;5.65;;;;;;;;;;4964397;28;20477;-74
2022/03/01 03:10:18;;;;;;;17.48;5.85;;;;;;;;;;4966113;28;20023;-73
2022/03/01 03:12:44;;;;;;;17.50;6.35;;;;;;;;;;4971041;28;20034;-74
2022/03/01 03:15:11;;;;;;;13.68;6.80;;;;;;;;;;4970633;28;20393;-73
2022/03/01 03:17:37;;;;;;;11.90;5.95;;;;;;;;;;4970062;28;20485;-75
2022/03/01 03:20:04;;;;;;;12.73;7.05;;;;;;;;;;4971344;28;20031;-75
2022/03/01 03:22:30;;;;;;;9.98;6.13;;;;;;;;;;4959891;28;20028;-74
2022/03/01 03:24:56;;;;;;;11.13;5.80;;;;;;;;;;4960077;28;20030;-74
2022/03/01 03:27:22;;;;;;;9.27;6.78;;;;;;;;;;4963764;28;20035;-73
2022/03/01 03:29:48;;;;;;;13.07;7.03;;;;;;;;;;4962230;28;20488;-74
2022/03/01 03:32:14;;;;;;;12.05;6.90;;;;;;;;;;4972638;28;20033;-74
2022/03/01 03:34:40;;;;;;;13.07;6.20;;;;;;;;;;4970808;28;20076;-74
2022/03/01 03:37:07;;;;;;;12.38;6.28;;;;;;;;;;4969294;28;20031;-73
2022/03/01 03:39:33;;;;;;;10.68;6.88;;;;;;;;;;4969016;28;20039;-74
2022/03/01 03:41:59;;;;;;;11.40;6.18;;;;;;;;;;4974152;28;20114;-74
2022/03/01 03:44:25;;;;;;;10.77;6.18;;;;;;;;;;4977271;28;20042;-73
2022/03/01 03:46:51;;;;;;;13.43;7.28;;;;;;;;;;4973388;28;20038;-75
2022/03/01 03:49:19;;;;;;;12.93;6.65;;;;;;;;;;4981126;28;20030;-74
2022/03/01 03:51:45;;;;;;;12.90;7.20;;;;;;;;;;4972996;28;20031;-74
2022/03/01 03:54:11;;;;;;;14.35;6.50;;;;;;;;;;4953177;28;20039;-73
2022/03/01 03:56:37;;;;;;;11.75;6.22;;;;;;;;;;4961198;28;20080;-74
2022/03/01 03:59:07;;;;;;;15.80;6.72;;;;;;;;;;4952413;28;20030;-74
2022/03/01 04:01:33;;;;;;;17.48;6.60;;;;;;;;;;4958167;28;20030;-73
2022/03/01 04:04:00;;;;;;;16.48;7.97;;;;;;;;;;4960440;28;20062;-73
2022/03/01 04:06:26;;;;;;;13.82;7.15;;;;;;;;;;4962264;28;20029;-74
2022/03/01 04:08:53;;;;;;;14.82;5.90;;;;;;;;;;4966165;28;20031;-74
2022/03/01 04:11:19;;;;;;;14.50;7.75;;;;;;;;;;4974442;28;20122;-74
2022/03/01 04:13:45;;;;;;;13.32;6.00;;;;;;;;;;4972005;28;20536;-73
2022/03/01 04:16:11;;;;;;;12.68;6.57;;;;;;;;;;4970012;28;20039;-74
2022/03/01 04:18:37;;;;;;;16.15;6.35;;;;;;;;;;4970267;28;20030;-74
2022/03/01 04:21:04;;;;;;;13.88;6.53;;;;;;;;;;4968742;28;20106;-74
2022/03/01 04:23:30;;;;;;;12.07;6.97;;;;;;;;;;4974300;28;20007;-74
2022/03/01 04:25:56;;;;;;;12.20;7.00;;;;;;;;;;4972091;28;20066;-74
2022/03/01 04:28:23;;;;;;;13.10;7.18;;;;;;;;;;4972216;28;20043;-74
2022/03/01 04:30:49;;;;;;;11.20;7.43;;;;;;;;;;4960855;28;20027;-73
2022/03/01 04:33:15;;;;;;;14.50;7.28;;;;;;;;;;4969071;28;20037;-74
2022/03/01 04:35:41;;;;;;;15.55;7.65;;;;;;;;;;4971671;28;20439;-74
2022/03/01 04:38:08;;;;;;;11.63;6.78;;;;;;;;;;4963615;28;20123;-74
2022/03/01 04:40:34;;;;;;;13.30;7.53;;;;;;;;;;4975627;28;20098;-74
2022/03/01 04:43:00;;;;;;;11.45;6.72;;;;;;;;;;4970474;28;20033;-74
2022/03/01 04:45:26;;;;;;;17.85;7.32;;;;;;;;;;4970772;28;20381;-74
2022/03/01 04:47:52;;;;;;;16.15;8.77;;;;;;;;;;4970807;28;20022;-74
2022/03/01 04:50:18;;;;;;;12.85;7.65;;;;;;;;;;4973181;28;20023;-74
2022/03/01 04:52:44;;;;;;;11.50;6.63;;;;;;;;;;4972232;28;20038;-74
2022/03/01 04:55:10;;;;;;;16.05;7.38;;;;;;;;;;4971225;28;20452;-75
2022/03/01 04:57:36;;;;;;;16.50;8.55;;;;;;;;;;4959902;28;20039;-75
2022/03/01 05:00:06;;;;;;;14.45;8.55;;;;;;;;;;4973473;28;20106;-75
2022/03/01 05:02:32;;;;;;;12.90;7.03;;;;;;;;;;4969034;28;20043;-75
2022/03/01 05:04:58;;;;;;;17.48;7.25;;;;;;;;;;4972171;28;20482;-74
2022/03/01 05:07:24;;;;;;;12.15;6.75;;;;;;;;;;4978233;28;20030;-75
2022/03/01 05:09:50;;;;;;;9.50;6.40;;;;;;;;;;4968682;28;20574;-75
2022/03/01 05:12:17;;;;;;;17.83;7.07;;;;;;;;;;4962756;28;20436;-74
2022/03/01 05:14:43;;;;;;;14.73;7.25;;;;;;;;;;4967086;28;20030;-75
2022/03/01 05:17:09;;;;;;;17.60;7.40;;;;;;;;;;4968799;28;20042;-74
2022/03/01 05:19:35;;;;;;;15.23;7.60;;;;;;;;;;4975393;28;20037;-74
2022/03/01 05:22:01;;;;;;;11.88;7.00;;;;;;;;;;4965984;28;20027;-74
2022/03/01 05:24:27;;;;;;;16.13;7.78;;;;;;;;;;4975122;28;20031;-74
2022/03/01 05:26:57;;;;;;;13.00;6.85;;;;;;;;;;4977850;28;20031;-75
2022/03/01 05:29:24;;;;;;;18.33;7.22;;;;;;;;;;4947871;28;20035;-74
2022/03/01 05:31:52;;;;;;;15.65;7.22;;;;;;;;;;4970926;28;20026;-74
2022/03/01 05:34:18;;;;;;;28.67;7.32;;;;;;;;;;4968180;28;20566;-75
2022/03/01 05:36:44;;;;;;;15.77;7.13;;;;;;;;;;4969015;28;20039;-74
2022/03/01 05:39:10;;;;;;;18.38;7.03;;;;;;;;;;4963165;28;20035;-75
2022/03/01 05:41:37;;;;;;;12.82;6.20;;;;;;;;;;4968837;28;20034;-74
2022/03/01 05:44:03;;;;;;;12.65;6.43;;;;;;;;;;4972265;28;20026;-75
2022/03/01 05:46:29;;;;;;;9.98;6.03;;;;;;;;;;4963413;28;20042;-75
2022/03/01 05:48:55;;;;;;;13.70;6.60;;;;;;;;;;4960012;28;20033;-75
2022/03/01 05:51:21;;;;;;;8.90;6.63;;;;;;;;;;4972919;28;20039;-74
2022/03/01 05:53:47;;;;;;;11.88;5.75;;;;;;;;;;4960335;28;20039;-75
2022/03/01 05:56:13;;;;;;;11.85;6.47;;;;;;;;;;4974213;28;20324;-74
2022/03/01 05:58:40;;;;;;;14.73;6.93;;;;;;;;;;4969606;28;20525;-75
2022/03/01 06:01:06;;;;;;;17.60;7.93;;;;;;;;;;4974872;28;20031;-74
2022/03/01 06:03:32;;;;;;;21.08;7.05;;;;;;;;;;4975284;28;20479;-75
2022/03/01 06:05:58;;;;;;;11.95;6.32;;;;;;;;;;4970909;28;20631;-75
2022/03/01 06:08:24;;;;;;;17.05;7.10;;;;;;;;;;4977517;28;20047;-75
2022/03/01 06:10:50;;;;;;;11.50;6.25;;;;;;;;;;4958376;28;20033;-75
2022/03/01 06:13:16;;;;;;;15.55;7.13;;;;;;;;;;4968243;28;20540;-75
2022/03/01 06:15:42;;;;;;;11.15;6.28;;;;;;;;;;4973882;28;20046;-76
2022/03/01 06:18:08;;;;;;;11.88;6.20;;;;;;;;;;4973460;28;20125;-74
2022/03/01 06:20:34;;;;;;;12.43;6.82;;;;;;;;;;4967433;28;20051;-75
2022/03/01 06:23:00;;;;;;;12.00;6.90;;;;;;;;;;4971669;28;20078;-75
2022/03/01 06:25:26;;;;;;;16.58;8.00;;;;;;;;;;4967025;28;20081;-75
2022/03/01 06:27:53;;;;;;;12.55;7.45;;;;;;;;;;4977458;28;20026;-75
2022/03/01 06:30:19;;;;;;;12.68;7.97;;;;;;;;;;4976863;28;20128;-75
2022/03/01 06:32:45;;;;;;;12.80;7.35;;;;;;;;;;4974809;28;20034;-74
2022/03/01 06:35:11;;;;;;;11.70;7.68;;;;;;;;;;4974370;28;20031;-76
2022/03/01 06:37:37;;;;;;;14.77;7.68;;;;;;;;;;4975190;28;20033;-75
2022/03/01 06:40:06;;;;;;;13.55;8.07;;;;;;;;;;4970044;28;20055;-75
2022/03/01 06:42:32;;;;;;;14.02;7.35;;;;;;;;;;4985437;28;20030;-76
2022/03/01 06:44:59;;;;;;;16.98;9.50;;;;;;;;;;4980936;28;20031;-76
2022/03/01 06:47:25;;;;;;;14.45;8.40;;;;;;;;;;4976954;28;20026;-77
2022/03/01 06:49:51;;;;;;;15.65;8.20;;;;;;;;;;4976039;28;20039;-75
2022/03/01 06:52:18;;;;;;;17.48;8.13;;;;;;;;;;4978633;28;20065;-75
2022/03/01 06:54:44;;;;;;;10.48;6.53;;;;;;;;;;4979564;28;20739;-76
2022/03/01 06:57:10;;;;;;;12.63;7.13;;;;;;;;;;4978956;28;20035;-75
2022/03/01 06:59:36;;;;;;;12.57;7.53;;;;;;;;;;4978081;28;20049;-75
2022/03/01 07:02:02;;;;;;;12.48;6.88;;;;;;;;;;4985204;28;20737;-74
2022/03/01 07:04:28;;;;;;;15.25;7.50;;;;;;;;;;4975764;28;20026;-76
2022/03/01 07:06:54;;;;;;;14.50;7.50;;;;;;;;;;4971433;28;20035;-76
2022/03/01 07:09:21;;;;;;;15.20;7.43;;;;;;;;;;4977338;28;20024;-75
2022/03/01 07:11:47;;;;;;;11.80;6.20;;;;;;;;;;4974914;28;20030;-75
2022/03/01 07:14:13;;;;;;;14.43;8.48;;;;;;;;;;4966772;28;20034;-76
2022/03/01 07:16:39;;;;;;;12.68;6.55;;;;;;;;;;4961275;28;20425;-75
2022/03/01 07:19:05;;;;;;;14.43;6.63;;;;;;;;;;4972584;28;20110;-76
2022/03/01 07:21:31;;;;;;;12.50;7.72;;;;;;;;;;4975245;28;20089;-75
2022/03/01 07:23:58;;;;;;;13.68;7.43;;;;;;;;;;4975814;28;20030;-76
2022/03/01 07:26:24;;;;;;;15.20;8.15;;;;;;;;;;4980293;28;20668;-76
2022/03/01 07:28:50;;;;;;;14.45;8.38;;;;;;;;;;4978812;28;20042;-76
2022/03/01 07:31:25;;;;;;;46.88;25.35;;;;;;;;;;4977156;28;20027;-76
2022/03/01 07:33:51;;;;;;;16.77;7.93;;;;;;;;;;4978377;28;20031;-75
2022/03/01 07:36:17;;;;;;;13.57;8.35;;;;;;;;;;4972745;28;20026;-76
2022/03/01 07:38:43;;;;;;;15.57;8.10;;;;;;;;;;4973053;28;20033;-76
2022/03/01 07:41:09;;;;;;;11.10;8.02;;;;;;;;;;4981912;28;20042;-76
2022/03/01 07:43:35;;;;;;;15.32;7.78;;;;;;;;;;4981679;28;20571;-77
2022/03/01 07:46:03;;;;;;;15.65;6.93;;;;;;;;;;4975803;28;20027;-76
2022/03/01 07:48:29;;;;;;;11.23;7.22;;;;;;;;;;4983632;28;20058;-76
2022/03/01 07:50:55;;;;;;;13.93;8.10;;;;;;;;;;4982460;28;20035;-75
2022/03/01 07:53:21;;;;;;;21.90;9.07;;;;;;;;;;4981586;28;20397;-76
2022/03/01 07:55:47;;;;;;;21.15;9.13;;;;;;;;;;4977350;28;20045;-76
2022/03/01 07:58:13;;;;;;;15.02;7.15;;;;;;;;;;4962785;28;20023;-75
2022/03/01 08:00:39;;;;;;;13.10;6.82;;;;;;;;;;4975874;28;20026;-76
2022/03/01 08:03:09;;;;;;;12.02;7.85;;;;;;;;;;4983061;28;20038;-77
2022/03/01 08:05:35;;;;;;;10.30;5.47;;;;;;;;;;4981670;28;20049;-77
2022/03/01 08:08:01;;;;;;;12.63;5.63;;;;;;;;;;4970558;28;20035;-73
2022/03/01 08:10:28;;;;;;;13.10;6.53;;;;;;;;;;4983695;28;20080;-77
2022/03/01 08:12:54;;;;;;;11.65;6.25;;;;;;;;;;4978628;28;20057;-76
2022/03/01 08:15:21;;;;;;;11.27;5.90;;;;;;;;;;4981046;28;20065;-77
2022/03/01 08:17:51;;;;;;;12.05;6.45;;;;;;;;;;4978975;28;20509;-78
2022/03/01 08:20:17;;;;;;;13.15;6.40;;;;;;;;;;4978931;28;20026;-76
2022/03/01 08:22:43;;;;;;;13.60;6.25;;;;;;;;;;4982699;28;20027;-77
2022/03/01 08:25:09;;;;;;;12.40;8.45;;;;;;;;;;4982810;28;20033;-76
2022/03/01 08:27:36;;;;;;;13.60;7.20;;;;;;;;;;4983244;28;20041;-76
2022/03/01 08:30:02;;;;;;;12.07;7.05;;;;;;;;;;4980192;28;20555;-74
2022/03/01 08:32:28;;;;;;;12.60;6.80;;;;;;;;;;4970924;28;20034;-76
2022/03/01 08:34:54;;;;;;;13.40;7.18;;;;;;;;;;4972744;28;20030;-76
2022/03/01 08:37:20;;;;;;;11.35;6.25;;;;;;;;;;4978080;28;20104;-76
2022/03/01 08:39:46;;;;;;;13.20;6.80;;;;;;;;;;4955807;28;20047;-77
2022/03/01 08:42:12;;;;;;;15.23;6.47;;;;;;;;;;4972688;28;20031;-75
2022/03/01 08:44:38;;;;;;;14.40;6.43;;;;;;;;;;4973696;28;20125;-74
2022/03/01 08:47:05;;;;;;;13.77;7.53;;;;;;;;;;4972776;28;20034;-75
2022/03/01 08:49:31;;;;;;;10.15;6.97;;;;;;;;;;4971133;28;20447;-74
2022/03/01 08:51:57;;;;;;;14.75;6.13;;;;;;;;;;4981612;28;20062;-73
2022/03/01 08:54:23;;;;;;;15.52;7.13;;;;;;;;;;4978028;28;20065;-73
2022/03/01 08:56:49;;;;;;;13.05;6.20;;;;;;;;;;4986970;28;20038;-74
2022/03/01 08:59:15;;;;;;;12.25;5.97;;;;;;;;;;4981596;28;20047;-73
2022/03/01 09:01:41;;;;;;;11.57;8.05;;;;;;;;;;4974640;28;20027;-74
2022/03/01 09:04:08;;;;;;;12.00;6.80;;;;;;;;;;4975170;28;20042;-73
2022/03/01 09:06:34;;;;;;;14.38;7.05;;;;;;;;;;4968902;28;20042;-73
2022/03/01 09:09:00;;;;;;;11.95;7.20;;;;;;;;;;4976680;28;20062;-74
2022/03/01 09:11:26;;;;;;;11.65;7.78;;;;;;;;;;4975295;28;20042;-74
2022/03/01 09:13:52;;;;;;;12.23;8.15;;;;;;;;;;4977741;28;20054;-73
2022/03/01 09:16:18;;;;;;;14.80;6.88;;;;;;;;;;4974302;28;20046;-74
2022/03/01 09:18:44;;;;;;;11.52;7.50;;;;;;;;;;4975669;28;20444;-74
2022/03/01 09:21:11;;;;;;;10.50;6.47;;;;;;;;;;4983421;28;20023;-74
2022/03/01 09:23:37;;;;;;;14.80;6.70;;;;;;;;;;4975062;28;20031;-74
2022/03/01 09:26:03;;;;;;;11.00;6.68;;;;;;;;;;4965848;28;20062;-74
2022/03/01 09:28:29;;;;;;;11.70;6.68;;;;;;;;;;4968277;28;20757;-73
2022/03/01 09:30:56;;;;;;;11.75;6.75;;;;;;;;;;4970127;28;20138;-74
2022/03/01 09:33:22;;;;;;;10.25;6.30;;;;;;;;;;4986238;28;20096;-73
2022/03/01 09:35:48;;;;;;;14.10;7.47;;;;;;;;;;4977564;28;20038;-74
2022/03/01 09:38:14;;;;;;;11.30;6.32;;;;;;;;;;4961589;28;20098;-75
2022/03/01 09:40:40;;;;;;;15.70;8.18;;;;;;;;;;4969013;28;20077;-75
2022/03/01 09:43:08;;;;;;;10.43;6.13;;;;;;;;;;4970488;28;20027;-72
2022/03/01 09:45:34;;;;;;;10.82;5.47;;;;;;;;;;4980041;28;20027;-76
2022/03/01 09:48:00;;;;;;;15.55;8.27;;;;;;;;;;4983122;28;20043;-73
2022/03/01 09:50:29;;;;;;;14.68;6.35;;;;;;;;;;4984717;28;20034;-69
2022/03/01 09:52:56;;;;;;;9.05;6.13;;;;;;;;;;4972952;28;20030;-72
2022/03/01 09:55:23;;;;;;;16.15;7.03;;;;;;;;;;4981869;28;20027;-73
2022/03/01 09:57:49;;;;;;;20.58;8.23;;;;;;;;;;4976021;28;20039;-70
2022/03/01 10:00:15;;;;;;;22.65;7.43;;;;;;;;;;4980464;28;20058;-69
2022/03/01 10:02:42;;;;;;;21.98;7.80;;;;;;;;;;4987001;28;20039;-71
2022/03/01 10:05:09;;;;;;;13.65;5.32;;;;;;;;;;4985539;28;20030;-72
2022/03/01 10:07:35;;;;;;;35.10;8.65;;;;;;;;;;4992100;28;20169;-73
2022/03/01 10:10:16;;;;;;;14.05;6.50;;;;;;;;;;4971991;28;20039;-72
2022/03/01 10:12:42;;;;;;;558.42;89.78;;;;;;;;;;4989709;28;20023;-74
2022/03/01 10:15:10;;;;;;;16.48;5.97;;;;;;;;;;4983523;28;20485;-70
2022/03/01 10:17:39;;;;;;;10.23;6.00;;;;;;;;;;4989123;28;20070;-70
2022/03/01 10:20:10;;;;;;;12.88;5.63;;;;;;;;;;4985040;28;20030;-69
2022/03/01 10:22:57;;;;;;;11.30;6.05;;;;;;;;;;4974989;28;20030;-76
2022/03/01 10:25:27;;;;;;;12.27;6.00;;;;;;;;;;4990264;28;20015;-74
2022/03/01 10:27:54;;;;;;;155.98;24.48;;;;;;;;;;4989863;28;20035;-74
2022/03/01 10:30:27;;;;;;;11.93;5.78;;;;;;;;;;4984915;28;20030;-75
2022/03/01 10:33:07;;;;;;;10.02;5.53;;;;;;;;;;4987152;28;20097;-75
2022/03/01 10:35:33;;;;;;;11.88;5.70;;;;;;;;;;4993046;28;20035;-74
2022/03/01 10:38:01;;;;;;;13.00;6.07;;;;;;;;;;4995223;28;20082;-75
2022/03/01 10:40:27;;;;;;;10.13;4.95;;;;;;;;;;4982185;28;20050;-74
2022/03/01 10:43:13;;;;;;;12.10;5.82;;;;;;;;;;4984344;28;20041;-73
2022/03/01 10:45:39;;;;;;;;;;;;;;;;;;4979298;28;20081;-74
2022/03/01 10:48:06;;;;;;;13.00;4.90;;;;;;;;;;4985260;28;19949;-74
2022/03/01 10:50:32;;;;;;;10.60;5.38;;;;;;;;;;4989253;28;20030;-77
2022/03/01 10:52:59;;;;;;;15.90;6.68;;;;;;;;;;4986875;28;20031;-74
2022/03/01 10:55:27;;;;;;;907.10;91.43;;;;;;;;;;4985120;28;20045;-76
2022/03/01 10:57:58;;;;;;;12.98;5.38;;;;;;;;;;4985040;28;20047;-76
2022/03/01 11:00:24;;;;;;;13.13;4.70;;;;;;;;;;4989719;28;20023;-76
2022/03/01 11:02:51;;;;;;;14.48;5.22;;;;;;;;;;4983175;28;20022;-76
2022/03/01 11:05:17;;;;;;;10.20;4.97;;;;;;;;;;4974368;28;20063;-75
2022/03/01 11:07:44;;;;;;;11.68;6.60;;;;;;;;;;4977209;28;20131;-75
2022/03/01 11:10:12;;;;;;;11.80;5.03;;;;;;;;;;4979852;28;20066;-72
2022/03/01 11:12:39;;;;;;;10.75;4.53;;;;;;;;;;4981260;28;20035;-74
2022/03/01 11:15:10;;;;;;;7.93;4.93;;;;;;;;;;4983670;28;20090;-75
2022/03/01 11:17:41;;;;;;;12.48;4.88;;;;;;;;;;4984696;28;20035;-75
2022/03/01 11:20:07;;;;;;;15.55;5.65;;;;;;;;;;4979264;28;20030;-73
2022/03/01 11:22:41;;;;;;;27.52;5.85;;;;;;;;;;4985229;28;20046;-74
2022/03/01 11:25:08;;;;;;;12.25;5.28;;;;;;;;;;4980177;28;20022;-75
2022/03/01 11:27:42;;;;;;;11.45;5.38;;;;;;;;;;4978791;28;20054;-74
2022/03/01 11:30:09;;;;;;;17.97;5.53;;;;;;;;;;4994795;28;20065;-78
2022/03/01 11:32:42;;;;;;;11.65;6.93;;;;;;;;;;4976693;28;20038;-77
2022/03/01 11:35:11;;;;;;;12.23;5.55;;;;;;;;;;4993036;28;20031;-74
2022/03/01 11:37:37;;;;;;;11.85;5.28;;;;;;;;;;4967050;28;20019;-76
2022/03/01 11:40:04;;;;;;;8.35;4.57;;;;;;;;;;4987955;28;20123;-78
2022/03/01 11:42:34;;;;;;;12.50;5.43;;;;;;;;;;4982233;28;20019;-75
2022/03/01 11:45:09;;;;;;;8.10;4.45;;;;;;;;;;4977080;28;20026;-76
2022/03/01 11:47:35;;;;;;;6.72;3.00;;;;;;;;;;4993643;28;20082;-75
2022/03/01 11:50:15;;;;;;;6.60;3.33;;;;;;;;;;4990080;28;20039;-75
2022/03/01 11:53:11;;;;;;;8.38;3.03;;;;;;;;;;4986028;28;20037;-76
2022/03/01 11:55:41;;;;;;;4.50;2.40;;;;;;;;;;4956134;28;20046;-76
2022/03/01 11:58:07;;;;;;;5.68;2.65;;;;;;;;;;4992009;28;20035;-75
2022/03/01 12:00:35;;;;;;;6.82;3.17;;;;;;;;;;4995504;28;20029;-76
2022/03/01 12:03:01;;;;;;;7.95;3.55;;;;;;;;;;4980476;28;20028;-74
2022/03/01 12:05:27;;;;;;;5.68;2.65;;;;;;;;;;4975125;28;20031;-76
2022/03/01 12:07:54;;;;;;;5.38;2.40;;;;;;;;;;4991845;28;20086;-77
2022/03/01 12:10:24;;;;;;;8.15;2.63;;;;;;;;;;4992085;28;20065;-75
2022/03/01 12:12:53;;;;;;;5.43;2.53;;;;;;;;;;4974439;28;20058;-76
2022/03/01 12:15:27;;;;;;;13.75;3.13;;;;;;;;;;4992325;28;20039;-76
2022/03/01 12:17:54;;;;;;;9.20;2.95;;;;;;;;;;4990194;28;20485;-77
2022/03/01 12:20:23;;;;;;;8.00;2.80;;;;;;;;;;4987823;28;20779;-77
2022/03/01 12:23:03;;;;;;;5.90;2.80;;;;;;;;;;4981160;28;20095;-76
2022/03/01 12:25:32;;;;;;;4.97;2.42;;;;;;;;;;4975390;28;20042;-76
2022/03/01 12:27:58;;;;;;;5.60;2.75;;;;;;;;;;4981998;28;20043;-76
2022/03/01 12:30:25;;;;;;;6.65;2.63;;;;;;;;;;4984431;28;20031;-76
2022/03/01 12:32:51;;;;;;;7.43;2.75;;;;;;;;;;4978831;28;20027;-77
2022/03/01 12:35:17;;;;;;;5.88;2.33;;;;;;;;;;4974029;28;20042;-74
2022/03/01 12:37:43;;;;;;;6.78;2.40;;;;;;;;;;4970003;28;20053;-77
2022/03/01 12:40:10;;;;;;;7.72;3.42;;;;;;;;;;4975855;28;20078;-77
2022/03/01 12:42:36;;;;;;;7.35;3.13;;;;;;;;;;4978652;28;20034;-79
2022/03/01 12:45:03;;;;;;;13.75;3.08;;;;;;;;;;4979572;28;20030;-79
2022/03/01 12:47:29;;;;;;;5.88;2.08;;;;;;;;;;4976730;28;20042;-78
2022/03/01 12:49:55;;;;;;;4.43;2.60;;;;;;;;;;4982045;28;20092;-83
2022/03/01 12:52:22;;;;;;;5.80;2.85;;;;;;;;;;4970409;28;20456;-78
2022/03/01 12:54:49;;;;;;;5.15;2.63;;;;;;;;;;4959440;28;20090;-76
2022/03/01 12:57:15;;;;;;;5.43;2.50;;;;;;;;;;4974022;28;20198;-79
2022/03/01 12:59:42;;;;;;;9.40;2.70;;;;;;;;;;4974446;28;20035;-80
2022/03/01 13:02:08;;;;;;;6.13;2.28;;;;;;;;;;4959240;28;20054;-81
2022/03/01 13:04:35;;;;;;;2.85;2.13;;;;;;;;;;4975054;28;20035;-81
2022/03/01 13:07:02;;;;;;;7.15;2.00;;;;;;;;;;4967838;28;20027;-84
2022/03/01 13:09:28;;;;;;;9.05;2.20;;;;;;;;;;4979619;28;20031;-80
2022/03/01 13:11:54;;;;;;;3.58;1.90;;;;;;;;;;4970364;28;20018;-77
2022/03/01 13:14:21;;;;;;;5.57;2.20;;;;;;;;;;4980019;28;20411;-81
2022/03/01 13:16:52;;;;;;;16.10;2.92;;;;;;;;;;4978311;28;20030;-81
2022/03/01 13:19:22;;;;;;;6.60;2.67;;;;;;;;;;4970971;28;20121;-75
2022/03/01 13:21:49;;;;;;;4.40;2.72;;;;;;;;;;4963628;28;20027;-83
2022/03/01 13:24:19;;;;;;;4.60;2.60;;;;;;;;;;4976613;28;20044;-77
2022/03/01 13:26:46;;;;;;;7.47;3.35;;;;;;;;;;4979087;28;20114;-82
2022/03/01 13:29:16;;;;;;;4.05;2.50;;;;;;;;;;4982072;28;20035;-84
2022/03/01 13:31:43;;;;;;;5.55;2.28;;;;;;;;;;4979824;28;20054;-82
2022/03/01 13:34:09;;;;;;;4.05;2.22;;;;;;;;;;4980968;28;20027;-84
2022/03/01 13:36:38;;;;;;;5.93;2.70;;;;;;;;;;4978939;28;20042;-80
2022/03/01 13:39:12;;;;;;;4.88;2.70;;;;;;;;;;4966300;28;20424;-81
2022/03/01 13:41:40;;;;;;;5.35;2.45;;;;;;;;;;4979454;28;20066;-81
2022/03/01 13:44:14;;;;;;;5.68;2.03;;;;;;;;;;4978105;28;20019;-86
2022/03/01 13:46:40;;;;;;;6.35;2.67;;;;;;;;;;4979087;28;20041;-82
2022/03/01 13:49:07;;;;;;;7.10;2.45;;;;;;;;;;4980455;28;20022;-82
2022/03/01 13:51:34;;;;;;;5.35;2.17;;;;;;;;;;4979608;28;20026;-84
2022/03/01 13:54:07;;;;;;;5.32;1.88;;;;;;;;;;4979754;28;20037;-85
2022/03/01 13:56:33;;;;;;;4.90;2.10;;;;;;;;;;4976848;28;20031;-82
2022/03/01 13:59:03;;;;;;;6.35;3.50;;;;;;;;;;4962433;28;21070;-84
2022/03/01 14:01:32;;;;;;;9.10;3.47;;;;;;;;;;4981109;28;20039;-87
2022/03/01 14:04:01;;;;;;;9.15;4.60;;;;;;;;;;4978700;28;20030;-75
2022/03/01 14:06:27;;;;;;;6.28;2.90;;;;;;;;;;4976322;28;20027;-76
2022/03/01 14:08:55;;;;;;;4.75;2.65;;;;;;;;;;4976287;28;20122;-81
2022/03/01 14:11:21;;;;;;;8.35;2.90;;;;;;;;;;4977362;28;20604;-80
2022/03/01 14:13:49;;;;;;;3.53;2.05;;;;;;;;;;4980262;28;20038;-82
2022/03/01 14:16:25;;;;;;;8.40;3.85;;;;;;;;;;4979030;28;20092;-84
2022/03/01 14:18:53;;;;;;;14.15;6.53;;;;;;;;;;4982981;28;20026;-80
2022/03/01 14:21:26;;;;;;;6.53;3.65;;;;;;;;;;4983614;28;20052;-80
2022/03/01 14:23:53;;;;;;;9.32;3.33;;;;;;;;;;4978857;28;20105;-82
2022/03/01 14:26:19;;;;;;;6.05;2.78;;;;;;;;;;4979346;28;20026;-81
2022/03/01 14:28:51;;;;;;;4.18;2.78;;;;;;;;;;4980734;28;20041;-80
2022/03/01 14:31:18;;;;;;;6.10;2.28;;;;;;;;;;4974650;28;20572;-81
2022/03/01 14:33:44;;;;;;;6.20;2.20;;;;;;;;;;4978491;28;20497;-81